Benton, KY

8:22 PM CDT on May 24, 2015 (GMT -0500)
Campbell Army Air Field | | Change Station
CLOSE
Current Station
Airport
Location: Fort Campbell,
Elevation: 571 ft
Nearby Weather Stations
Active Advisory: Lake Wind Advisory

Elev 571 ft 36.67 °N, 87.50 °W | Updated 24 minutes ago

Clear
Clear
80 °F
Feels Like 82 °F
N
10
Wind Variable Wind from SE

Today
High -- | Low -- °F
--% Chance of Precip.
Yesterday
High -- | Low -- °F
Precip. -- in
5:39 AM 8:01 PM
Waxing Crescent, 44% visible
Pressure 30.04 in
Visibility 10.0 miles
Clouds Few 10000 ft
Heat Index 82 °F
Dew Point 66 °F
Humidity 62%
Rainfall 0.00 in
Snow Depth Not available.
UV 0 out of 12
Pollen 8.10 out of 12
Air Quality Not available.
Flu Activity Sporadic
METAR KHOP 250058Z AUTO 14009KT 10SM FEW100 27/19 A3005 RMK AO2 SLP173 T02670190

More Conditions Fewer Conditions

Pressure 30.04 in
Visibility 10.0 miles
Clouds Few 10000 ft
Heat Index 82 °F
Dew Point 66 °F
Humidity 62%
Rainfall 0.00 in
Snow Depth Not available.
UV 0 out of 12
Pollen 8.10 out of 12
Air Quality Not available.
Flu Activity Sporadic
METAR KHOP 250058Z AUTO 14009KT 10SM FEW100 27/19 A3005 RMK AO2 SLP173 T02670190

More Conditions Fewer Conditions

10-Day Weather Forecast

Almanac

Astronomy

May. 24, 2015 Rise Set
Actual Time
Civil Twilight
Nautical Twilight
Astronomical Twilight
Moon
Length of Visible Light
Length of Day
Tomorrow will be .
, % of the Moon is Illuminated

Today's Extremes

State Highs State Lows

Community

WunderPhotos

Upload Photos

1,823,918 photos uploaded!

WunderBlogs® & News

Nearby

Air Quality

  Air Quality AQ Index Pollutant
Not available.

Snow Depth

Station Depth Elevation

Earthquake Activity

City Distance Mag. Time & Date
Minimum magnitude displayed is 2.5.

Coastal Water Temperatures

Place Temperature

Stations

Nearby Weather Stations

Station Location Temp. Windchill Dew Point Humidity Wind Precip. Elev Updated Type
                   
Lake Wind Advisory
Statement as of 7:18 PM CDT on May 24, 2015

... Lake Wind Advisory in effect until midnight CDT tonight...

The National Weather Service in Paducah has issued a lake Wind
Advisory... which is in effect until midnight CDT tonight.

* Timing... strong winds will continue through the evening.

* Winds... sustained winds around 15 mph with gusts of 20 to 25
mph.

* Impacts... impacts will be high due to the Holiday weekend
boating activity. Those who plan to be on the water through the
night should take appropriate precautions.

Precautionary/preparedness actions...

A lake Wind Advisory indicates that winds will cause rough chop
on area lakes. Small boats will be especially prone to capsizing.